Terminal Aerodrome Forecast
Issued by NWS

Home | Current Version | Previous Version | Text Only | Print | Product List | Glossary On
Versions: 1 2 3 4 5 6 7 8 9 10 11 12
000
FTUS45 KMSO 270604 RRA
TAFSMN
TAF
KSMN 270604Z 2706/2806 32009KT P6SM BKN100
     FM271900 36006KT P6SM VCSH BKN060
     FM280100 VRB03KT P6SM SKC
      AMD LTD TO CLD VIS AND WIND=

USA.gov is the U.S. government's official web portal to all federal, state and local government web resources and services.